createdAt,value
2018-03-28T00:01:48.936Z,86.80
2018-03-28T00:04:20.005Z,87.10
2018-03-28T00:06:50.722Z,87.00
2018-03-28T00:09:21.810Z,87.10
2018-03-28T00:11:53.783Z,87.10
2018-03-28T00:14:31.597Z,87.20
2018-03-28T00:17:02.513Z,87.40
2018-03-28T00:19:34.483Z,87.40
2018-03-28T00:22:07.030Z,87.40
2018-03-28T00:24:37.991Z,87.50
2018-03-28T00:27:08.966Z,87.30
2018-03-28T00:29:40.025Z,87.60
2018-03-28T00:32:11.162Z,87.60
2018-03-28T00:34:43.239Z,87.60
2018-03-28T00:37:14.956Z,87.60
2018-03-28T00:39:45.687Z,87.50
2018-03-28T00:42:17.667Z,87.60
2018-03-28T00:44:49.288Z,87.50
2018-03-28T00:47:20.574Z,87.60
2018-03-28T00:49:51.606Z,87.80
2018-03-28T00:52:22.277Z,87.90
2018-03-28T00:54:53.321Z,87.80
2018-03-28T00:57:23.696Z,87.90
2018-03-28T00:59:53.949Z,87.90
2018-03-28T01:02:24.854Z,87.90
2018-03-28T01:04:56.110Z,88.00
2018-03-28T01:07:27.259Z,88.00
2018-03-28T01:09:59.257Z,87.90
2018-03-28T01:12:30.549Z,87.90
2018-03-28T01:15:01.993Z,88.00
2018-03-28T01:17:33.072Z,88.00
2018-03-28T01:20:05.229Z,87.90
2018-03-28T01:22:36.497Z,88.00
2018-03-28T01:25:07.975Z,87.90
2018-03-28T01:27:39.173Z,88.00
2018-03-28T01:30:10.774Z,88.00
2018-03-28T01:32:42.049Z,87.80
2018-03-28T01:35:13.198Z,87.90
2018-03-28T01:37:44.382Z,88.00
2018-03-28T01:40:21.935Z,87.80
2018-03-28T01:42:53.842Z,87.90
2018-03-28T01:45:25.384Z,87.90
2018-03-28T01:47:56.773Z,87.80
2018-03-28T01:50:28.448Z,87.80
2018-03-28T01:52:59.910Z,87.80
2018-03-28T01:55:31.307Z,87.60
2018-03-28T01:58:02.585Z,87.80
2018-03-28T02:00:34.109Z,87.80
2018-03-28T02:03:04.962Z,87.90
2018-03-28T02:05:36.186Z,87.90
2018-03-28T02:08:07.378Z,87.90
2018-03-28T02:10:38.830Z,87.90
2018-03-28T02:13:10.053Z,87.20
2018-03-28T02:15:42.167Z,87.80
2018-03-28T02:18:14.054Z,87.80
2018-03-28T02:20:45.354Z,87.70
2018-03-28T02:23:17.208Z,87.70
2018-03-28T02:25:49.892Z,87.70
2018-03-28T02:28:21.656Z,87.70
2018-03-28T02:30:52.968Z,87.60
2018-03-28T02:33:24.531Z,87.60
2018-03-28T02:35:57.006Z,87.70
2018-03-28T02:38:28.551Z,87.60
2018-03-28T02:40:59.823Z,87.70
2018-03-28T02:43:31.277Z,87.60
2018-03-28T02:46:02.422Z,87.60
2018-03-28T02:48:33.363Z,87.50
2018-03-28T02:51:05.150Z,87.50
2018-03-28T02:53:36.648Z,87.50
2018-03-28T02:56:07.796Z,87.40
2018-03-28T02:58:39.314Z,87.40
2018-03-28T03:01:11.400Z,87.40
2018-03-28T03:03:44.084Z,87.30
2018-03-28T03:06:16.107Z,87.30
2018-03-28T03:08:47.743Z,87.50
2018-03-28T03:11:18.899Z,87.60
2018-03-28T03:13:50.427Z,88.20
2018-03-28T03:16:22.193Z,87.60
2018-03-28T03:18:54.871Z,87.60
2018-03-28T03:21:26.323Z,87.60
2018-03-28T03:23:58.147Z,87.60
2018-03-28T03:26:31.069Z,87.60
2018-03-28T03:29:02.241Z,87.60
2018-03-28T03:31:34.055Z,87.60
2018-03-28T03:34:06.004Z,87.60
2018-03-28T03:36:37.209Z,87.70
2018-03-28T03:39:08.676Z,87.60
2018-03-28T03:41:40.345Z,87.80
2018-03-28T03:44:11.747Z,87.70
2018-03-28T03:46:42.996Z,87.90
2018-03-28T03:49:13.437Z,88.00
2018-03-28T03:51:45.298Z,87.90
2018-03-28T03:54:15.775Z,87.90
2018-03-28T03:56:47.219Z,87.80
2018-03-28T03:59:18.585Z,87.80
2018-03-28T04:01:49.730Z,87.70
2018-03-28T04:04:21.573Z,87.90
2018-03-28T04:06:53.566Z,88.00
2018-03-28T04:09:26.976Z,88.60
2018-03-28T04:11:59.740Z,88.00
2018-03-28T04:14:31.726Z,87.80
2018-03-28T04:17:06.654Z,87.90
2018-03-28T04:19:38.080Z,87.80
2018-03-28T04:22:09.581Z,88.00
2018-03-28T04:24:41.052Z,87.90
2018-03-28T04:27:12.934Z,87.90
2018-03-28T04:29:44.352Z,87.80
2018-03-28T04:32:15.139Z,87.80
2018-03-28T04:34:46.555Z,87.80
2018-03-28T04:37:19.249Z,87.80
2018-03-28T04:39:50.656Z,88.00
2018-03-28T04:42:22.154Z,87.90
2018-03-28T04:44:53.678Z,88.80
2018-03-28T04:47:24.896Z,88.10
2018-03-28T04:49:55.636Z,88.00
2018-03-28T04:52:27.034Z,88.00
2018-03-28T04:54:58.247Z,88.10
2018-03-28T04:57:29.651Z,88.20
2018-03-28T05:00:00.740Z,87.30
2018-03-28T05:02:31.847Z,88.20
2018-03-28T05:05:02.769Z,88.20
2018-03-28T05:07:33.660Z,88.20
2018-03-28T05:10:04.683Z,88.30
2018-03-28T05:12:35.929Z,88.40
2018-03-28T05:15:06.981Z,88.50
2018-03-28T05:17:37.957Z,88.40
2018-03-28T05:20:08.803Z,87.90
2018-03-28T05:22:39.927Z,87.80
2018-03-28T05:25:11.123Z,87.60
2018-03-28T05:27:42.380Z,87.50
2018-03-28T05:30:13.676Z,87.30
2018-03-28T05:32:44.905Z,87.60
2018-03-28T05:35:15.964Z,87.50
2018-03-28T05:37:47.084Z,87.50
2018-03-28T05:40:17.859Z,87.40
2018-03-28T05:42:48.752Z,87.10
2018-03-28T05:45:19.564Z,87.00
2018-03-28T05:47:50.648Z,86.80
2018-03-28T05:50:21.534Z,86.60
2018-03-28T05:52:52.650Z,86.50
2018-03-28T05:55:23.755Z,86.30
2018-03-28T05:57:55.485Z,86.10
2018-03-28T06:00:26.851Z,85.90
2018-03-28T06:02:58.313Z,85.80
2018-03-28T06:05:29.489Z,85.70
2018-03-28T06:08:01.197Z,85.60
2018-03-28T06:10:32.264Z,85.50
2018-03-28T06:13:03.190Z,85.40
2018-03-28T06:15:33.978Z,85.30
2018-03-28T06:18:04.778Z,85.30
2018-03-28T06:20:35.512Z,85.20
2018-03-28T06:23:06.610Z,85.90
2018-03-28T06:25:37.432Z,84.80
2018-03-28T06:28:08.734Z,84.60
2018-03-28T06:30:39.515Z,84.40
2018-03-28T06:33:10.439Z,84.30
2018-03-28T06:35:41.019Z,84.30
2018-03-28T06:38:11.790Z,84.40
2018-03-28T06:40:42.412Z,84.20
2018-03-28T06:43:13.082Z,83.90
2018-03-28T06:45:43.823Z,83.50
2018-03-28T06:48:14.642Z,83.40
2018-03-28T06:50:45.256Z,83.20
2018-03-28T06:53:16.084Z,83.20
2018-03-28T06:55:46.568Z,82.80
2018-03-28T06:58:17.571Z,82.60
2018-03-28T07:00:48.133Z,82.80
2018-03-28T07:03:18.975Z,82.60
2018-03-28T07:05:49.553Z,82.40
2018-03-28T07:08:19.790Z,82.20
2018-03-28T07:10:50.262Z,82.00
2018-03-28T07:13:21.173Z,81.90
2018-03-28T07:15:51.719Z,81.90
2018-03-28T07:18:22.593Z,81.90
2018-03-28T07:20:53.444Z,81.90
2018-03-28T07:23:24.308Z,80.40
2018-03-28T07:25:54.945Z,81.40
2018-03-28T07:28:25.401Z,81.00
2018-03-28T07:30:55.891Z,81.20
2018-03-28T07:33:26.321Z,80.70
2018-03-28T07:35:56.906Z,80.40
2018-03-28T07:38:27.654Z,79.10
2018-03-28T07:40:58.041Z,80.20
2018-03-28T07:43:28.414Z,80.10
2018-03-28T07:45:58.752Z,80.00
2018-03-28T07:48:29.142Z,78.60
2018-03-28T07:50:59.548Z,79.60
2018-03-28T07:53:29.970Z,79.80
2018-03-28T07:56:01.280Z,79.60
2018-03-28T07:58:32.853Z,79.50
2018-03-28T08:01:04.218Z,79.50
2018-03-28T08:03:34.868Z,79.00
2018-03-28T08:06:05.331Z,78.70
2018-03-28T08:08:37.201Z,79.10
2018-03-28T08:11:07.762Z,79.20
2018-03-28T08:13:38.193Z,79.00
2018-03-28T08:16:08.895Z,78.70
2018-03-28T08:18:39.602Z,78.40
2018-03-28T08:21:10.858Z,77.80
2018-03-28T08:23:41.510Z,76.30
2018-03-28T08:26:13.004Z,77.00
2018-03-28T08:28:43.978Z,77.00
2018-03-28T08:31:14.808Z,77.00
2018-03-28T08:33:45.395Z,77.50
2018-03-28T08:36:15.980Z,77.00
2018-03-28T08:38:46.550Z,76.90
2018-03-28T08:41:17.066Z,76.90
2018-03-28T08:43:47.630Z,76.80
2018-03-28T08:46:18.247Z,76.60
2018-03-28T08:48:56.346Z,76.60
2018-03-28T08:51:31.463Z,76.70
2018-03-28T08:54:02.182Z,76.20
2018-03-28T08:56:32.500Z,76.20
2018-03-28T08:59:02.792Z,76.20
2018-03-28T09:01:33.141Z,76.10
2018-03-28T09:04:03.424Z,76.20
2018-03-28T09:06:33.708Z,76.10
2018-03-28T09:09:04.619Z,75.90
2018-03-28T09:11:35.013Z,77.90
2018-03-28T09:14:05.400Z,75.30
2018-03-28T09:16:35.676Z,75.40
2018-03-28T09:19:05.998Z,75.70
2018-03-28T09:21:36.341Z,75.80
2018-03-28T09:24:06.720Z,75.60
2018-03-28T09:26:37.068Z,74.10
2018-03-28T09:29:07.413Z,75.00
2018-03-28T09:31:37.815Z,74.90
2018-03-28T09:34:08.326Z,74.80
2018-03-28T09:36:38.812Z,74.90
2018-03-28T09:39:09.647Z,74.60
2018-03-28T09:41:40.661Z,74.80
2018-03-28T09:44:10.885Z,75.00
2018-03-28T09:46:41.155Z,75.20
2018-03-28T09:49:11.439Z,74.70
2018-03-28T09:51:41.708Z,74.70
2018-03-28T09:54:11.935Z,74.60
2018-03-28T09:56:43.688Z,74.90
2018-03-28T09:59:14.166Z,74.70
2018-03-28T10:01:48.710Z,74.20
2018-03-28T10:04:19.273Z,74.40
2018-03-28T10:06:49.635Z,74.60
2018-03-28T10:09:20.339Z,74.70
2018-03-28T10:11:50.615Z,74.60
2018-03-28T10:14:20.931Z,74.60
2018-03-28T10:16:51.221Z,74.80
2018-03-28T10:19:23.837Z,74.40
2018-03-28T10:21:54.082Z,73.40
2018-03-28T10:24:24.359Z,72.10
2018-03-28T10:26:54.682Z,73.20
2018-03-28T10:29:25.338Z,72.80
2018-03-28T10:31:55.673Z,73.50
2018-03-28T10:34:35.446Z,73.00
2018-03-28T10:37:05.897Z,72.80
2018-03-28T10:39:36.282Z,72.50
2018-03-28T10:42:06.689Z,71.90
2018-03-28T10:44:37.419Z,71.50
2018-03-28T10:47:07.949Z,70.70
2018-03-28T10:49:38.511Z,70.20
2018-03-28T10:52:08.947Z,69.60
2018-03-28T10:54:39.745Z,69.30
2018-03-28T10:57:10.115Z,68.30
2018-03-28T10:59:45.897Z,67.40
2018-03-28T11:02:16.185Z,66.90
2018-03-28T11:04:46.853Z,66.40
2018-03-28T11:07:17.144Z,66.10
2018-03-28T11:09:47.385Z,64.50
2018-03-28T11:12:17.736Z,64.10
2018-03-28T11:14:48.061Z,62.10
2018-03-28T11:17:18.480Z,61.60
2018-03-28T11:19:48.929Z,61.30
2018-03-28T11:22:19.694Z,60.60
2018-03-28T11:24:50.793Z,59.80
2018-03-28T11:27:21.155Z,59.90
2018-03-28T11:29:51.420Z,59.70
2018-03-28T11:32:21.623Z,58.90
2018-03-28T11:34:52.034Z,59.00
2018-03-28T11:37:22.297Z,59.70
2018-03-28T11:39:52.202Z,58.20
2018-03-28T11:42:22.230Z,57.80
2018-03-28T11:44:52.782Z,56.40
2018-03-28T11:47:23.074Z,55.50
2018-03-28T11:49:53.464Z,56.40
2018-03-28T11:52:23.895Z,55.80
2018-03-28T11:54:54.576Z,54.00
2018-03-28T11:57:27.834Z,53.30
2018-03-28T11:59:58.357Z,54.00
2018-03-28T12:02:28.864Z,54.80
2018-03-28T12:04:59.489Z,54.80
2018-03-28T12:07:30.009Z,57.60
2018-03-28T12:10:00.518Z,56.30
2018-03-28T12:12:30.958Z,57.10
2018-03-28T12:15:03.460Z,57.20
2018-03-28T12:17:33.933Z,56.30
2018-03-28T12:20:04.474Z,60.40
2018-03-28T12:22:34.957Z,58.60
2018-03-28T12:25:05.376Z,58.70
2018-03-28T12:27:35.813Z,58.80
2018-03-28T12:30:06.206Z,59.70
2018-03-28T12:32:36.309Z,59.30
2018-03-28T12:35:06.682Z,58.90
2018-03-28T12:37:37.086Z,59.80
2018-03-28T12:40:07.538Z,59.60
2018-03-28T12:42:37.796Z,60.50
2018-03-28T12:45:09.430Z,64.40
2018-03-28T12:47:39.769Z,61.90
2018-03-28T12:50:10.104Z,62.70
2018-03-28T12:52:41.554Z,63.30
2018-03-28T12:55:11.712Z,64.00
2018-03-28T12:57:42.051Z,64.70
2018-03-28T13:00:12.462Z,65.50
2018-03-28T13:02:43.996Z,66.10
2018-03-28T13:05:14.301Z,66.90
2018-03-28T13:07:44.621Z,67.70
2018-03-28T13:10:14.925Z,68.40
2018-03-28T13:12:45.222Z,69.00
2018-03-28T13:15:15.726Z,69.40
2018-03-28T13:17:46.235Z,69.80
2018-03-28T13:20:17.042Z,70.30
2018-03-28T13:22:47.513Z,71.00
2018-03-28T13:25:18.101Z,70.40
2018-03-28T13:27:48.544Z,70.90
2018-03-28T13:33:27.296Z,71.20
2018-03-28T13:36:00.911Z,71.90
2018-03-28T13:38:31.417Z,72.00
2018-03-28T13:41:01.480Z,73.40
2018-03-28T13:43:31.572Z,73.70
2018-03-28T13:46:01.979Z,73.80
2018-03-28T13:48:32.396Z,74.00
2018-03-28T13:51:02.875Z,74.00
2018-03-28T13:53:34.586Z,73.90
2018-03-28T13:56:04.963Z,74.00
2018-03-28T13:58:35.408Z,74.20
2018-03-28T14:01:05.903Z,74.30
2018-03-28T14:03:36.364Z,74.70
2018-03-28T14:06:08.879Z,74.00
2018-03-28T14:08:40.202Z,73.90
2018-03-28T14:11:10.651Z,74.10
2018-03-28T14:13:41.292Z,74.50
2018-03-28T14:16:11.674Z,74.90
2018-03-28T14:18:42.414Z,75.00
2018-03-28T14:21:16.724Z,75.80
2018-03-28T14:23:47.490Z,76.00
2018-03-28T14:26:17.999Z,76.60
2018-03-28T14:28:48.614Z,77.10
2018-03-28T14:31:19.261Z,77.50
2018-03-28T14:33:49.675Z,77.40
2018-03-28T14:36:20.134Z,78.10
2018-03-28T14:38:50.659Z,78.40
2018-03-28T14:41:21.023Z,78.40
2018-03-28T14:43:51.590Z,78.50
2018-03-28T14:46:21.944Z,78.50
2018-03-28T14:48:52.681Z,80.10
2018-03-28T14:51:25.227Z,80.00
2018-03-28T14:53:55.976Z,81.10
2018-03-28T14:56:26.453Z,80.20
2018-03-28T14:58:56.934Z,80.50
2018-03-28T15:01:27.456Z,80.60
2018-03-28T15:03:57.867Z,80.60
2018-03-28T15:06:28.404Z,81.00
2018-03-28T15:08:59.884Z,81.30
2018-03-28T15:11:30.263Z,79.90
2018-03-28T15:14:00.900Z,81.50
2018-03-28T15:16:31.223Z,81.50
2018-03-28T15:19:01.908Z,81.80
2018-03-28T15:21:32.317Z,81.90
2018-03-28T15:24:02.661Z,82.00
2018-03-28T15:26:32.959Z,82.10
2018-03-28T15:29:03.359Z,82.20
2018-03-28T15:31:33.786Z,81.00
2018-03-28T15:34:04.140Z,80.70
2018-03-28T15:36:34.568Z,80.70
2018-03-28T15:39:06.089Z,83.80
2018-03-28T15:41:38.683Z,80.30
2018-03-28T15:44:09.124Z,80.60
2018-03-28T15:46:39.518Z,80.60
2018-03-28T15:49:09.966Z,81.00
2018-03-28T15:51:40.329Z,80.90
2018-03-28T15:54:11.000Z,81.00
2018-03-28T15:56:43.169Z,80.80
2018-03-28T15:59:14.119Z,82.40
2018-03-28T16:01:44.543Z,81.50
2018-03-28T16:04:15.036Z,82.90
2018-03-28T16:06:45.964Z,83.10
2018-03-28T16:09:16.518Z,83.20
2018-03-28T16:11:47.109Z,83.40
2018-03-28T16:14:17.603Z,83.50
2018-03-28T16:16:48.099Z,83.80
2018-03-28T16:19:18.858Z,84.10
2018-03-28T16:21:49.339Z,83.70
2018-03-28T16:24:19.784Z,83.70
2018-03-28T16:26:51.928Z,83.70
2018-03-28T16:29:22.838Z,83.80
2018-03-28T16:31:53.288Z,83.90
2018-03-28T16:34:26.808Z,84.00
2018-03-28T16:36:57.528Z,84.00
2018-03-28T16:39:28.759Z,84.30
2018-03-28T16:41:59.233Z,84.30
2018-03-28T16:44:29.892Z,84.40
2018-03-28T16:47:00.329Z,84.50
2018-03-28T16:49:32.041Z,84.60
2018-03-28T16:52:02.436Z,84.60
2018-03-28T16:54:32.901Z,84.70
2018-03-28T16:57:03.306Z,84.70
2018-03-28T16:59:33.704Z,84.70
2018-03-28T17:02:04.298Z,84.70
2018-03-28T17:04:35.014Z,84.80
2018-03-28T17:07:05.495Z,85.00
2018-03-28T17:09:36.002Z,85.10
2018-03-28T17:12:08.580Z,85.40
2018-03-28T17:14:40.067Z,85.30
2018-03-28T17:17:10.722Z,85.30
2018-03-28T17:19:41.381Z,85.20
2018-03-28T17:22:11.957Z,84.90
2018-03-28T17:24:41.978Z,85.00
2018-03-28T17:27:12.606Z,85.10
2018-03-28T17:29:43.332Z,85.20
2018-03-28T17:32:14.354Z,85.30
2018-03-28T17:34:44.816Z,85.50
2018-03-28T17:37:15.281Z,85.60
2018-03-28T17:39:45.650Z,85.70
2018-03-28T17:42:16.182Z,86.00
2018-03-28T17:44:46.191Z,86.20
2018-03-28T17:47:16.775Z,86.50
2018-03-28T17:49:48.002Z,86.70
2018-03-28T17:52:19.371Z,86.80
2018-03-28T17:54:49.928Z,87.00
2018-03-28T17:57:20.564Z,87.00
2018-03-28T17:59:53.367Z,87.20
2018-03-28T18:02:26.260Z,87.10
2018-03-28T18:04:56.423Z,87.20
2018-03-28T18:07:26.866Z,87.30
2018-03-28T18:09:57.310Z,87.10
2018-03-28T18:12:27.992Z,87.10
2018-03-28T18:14:58.428Z,86.90
2018-03-28T18:17:29.333Z,86.90
2018-03-28T18:20:00.073Z,86.90
2018-03-28T18:22:30.535Z,86.80
2018-03-28T18:25:00.988Z,86.90
2018-03-28T18:27:32.385Z,87.20
2018-03-28T18:30:02.927Z,87.30
2018-03-28T18:32:33.313Z,87.00
2018-03-28T18:35:03.872Z,87.30
2018-03-28T18:37:40.425Z,87.40
2018-03-28T18:40:11.208Z,87.30
2018-03-28T18:42:41.853Z,87.60
2018-03-28T18:45:12.522Z,87.40
2018-03-28T18:47:44.416Z,87.20
2018-03-28T18:59:33.726Z,87.40
2018-03-28T19:02:04.669Z,87.30
2018-03-28T19:13:54.523Z,87.50
2018-03-28T19:16:25.058Z,88.20
2018-03-28T19:18:55.626Z,87.60
2018-03-28T19:21:26.413Z,87.70
2018-03-28T19:23:57.590Z,87.90
2018-03-28T19:26:28.074Z,88.20
2018-03-28T19:38:00.521Z,88.80
2018-03-28T19:40:48.982Z,88.60
2018-03-28T19:43:22.303Z,87.50
2018-03-28T19:45:53.114Z,85.80
2018-03-28T19:48:23.732Z,84.80
2018-03-28T19:53:30.997Z,82.20
2018-03-28T19:56:02.955Z,80.30
2018-03-28T19:58:33.725Z,79.20
2018-03-28T20:01:04.302Z,78.60
2018-03-28T20:03:34.825Z,78.10
2018-03-28T20:06:05.410Z,77.10
2018-03-28T20:08:36.173Z,76.90
2018-03-28T20:11:06.312Z,76.40
2018-03-28T20:13:36.466Z,76.10
2018-03-28T20:16:07.106Z,75.60
2018-03-28T20:18:39.326Z,75.30
2018-03-28T20:21:09.883Z,75.60
2018-03-28T20:23:40.406Z,75.70
2018-03-28T20:26:11.773Z,75.50
2018-03-28T20:28:42.317Z,73.50
2018-03-28T20:31:12.517Z,73.30
2018-03-28T20:33:43.136Z,72.70
2018-03-28T20:36:13.651Z,72.80
2018-03-28T20:38:44.462Z,72.90
2018-03-28T20:41:15.727Z,72.90
2018-03-28T20:43:46.336Z,72.90
2018-03-28T20:46:16.891Z,72.60
2018-03-28T20:48:47.325Z,72.80
2018-03-28T20:51:19.246Z,73.00
2018-03-28T20:53:49.712Z,72.90
2018-03-28T20:56:20.090Z,72.90
2018-03-28T20:58:50.646Z,72.90
2018-03-28T21:01:22.810Z,72.80
2018-03-28T21:03:53.428Z,73.10
2018-03-28T21:06:24.482Z,73.20
2018-03-28T21:08:55.974Z,73.30
2018-03-28T21:11:26.405Z,73.30
2018-03-28T21:13:57.406Z,73.70
2018-03-28T21:16:27.858Z,73.80
2018-03-28T21:18:58.424Z,73.80
2018-03-28T21:21:29.594Z,73.90
2018-03-28T21:24:00.073Z,73.50
2018-03-28T21:26:31.822Z,73.30
2018-03-28T21:29:02.241Z,73.30
2018-03-28T21:31:32.697Z,73.20
2018-03-28T21:34:03.176Z,73.10
2018-03-28T21:36:34.837Z,72.70
2018-03-28T21:39:06.719Z,72.40
2018-03-28T21:41:40.410Z,72.20
2018-03-28T21:44:12.507Z,73.00
2018-03-28T21:46:43.728Z,72.20
2018-03-28T21:49:14.266Z,71.20
2018-03-28T21:51:44.867Z,70.40
2018-03-28T21:54:14.900Z,69.60
2018-03-28T21:56:45.049Z,69.90
2018-03-28T21:59:15.703Z,69.20
2018-03-28T22:01:46.108Z,69.40
2018-03-28T22:04:17.517Z,69.20
2018-03-28T22:06:48.100Z,69.20
2018-03-28T22:09:18.944Z,68.80
2018-03-28T22:11:49.336Z,68.90
2018-03-28T22:14:20.303Z,68.40
2018-03-28T22:16:51.094Z,68.40
2018-03-28T22:19:21.271Z,67.50
2018-03-28T22:21:51.765Z,66.80
2018-03-28T22:24:22.484Z,66.70
2018-03-28T22:26:53.543Z,66.50
2018-03-28T22:29:25.487Z,66.40
2018-03-28T22:31:55.947Z,65.90
2018-03-28T22:34:26.567Z,65.40
2018-03-28T22:36:57.002Z,65.50
2018-03-28T22:39:28.052Z,65.90
2018-03-28T22:41:58.456Z,65.70
2018-03-28T22:44:29.558Z,65.70
2018-03-28T22:47:00.079Z,65.60
2018-03-28T22:49:31.790Z,65.60
2018-03-28T22:52:03.230Z,65.50
2018-03-28T22:54:33.710Z,65.20
2018-03-28T22:57:03.906Z,65.30
2018-03-28T22:59:34.628Z,65.10
2018-03-28T23:02:05.067Z,65.30
2018-03-28T23:04:35.811Z,65.60
2018-03-28T23:07:06.414Z,65.30
2018-03-28T23:09:37.095Z,64.80
2018-03-28T23:12:07.811Z,65.10
2018-03-28T23:14:38.525Z,65.00
2018-03-28T23:17:09.070Z,65.20
2018-03-28T23:19:39.277Z,65.30
2018-03-28T23:22:14.368Z,65.40
2018-03-28T23:24:46.217Z,65.40
2018-03-28T23:27:17.084Z,65.60
2018-03-28T23:29:48.049Z,65.90
2018-03-28T23:32:18.380Z,66.20
2018-03-28T23:34:50.438Z,66.80
2018-03-28T23:37:21.708Z,66.30
2018-03-28T23:39:52.632Z,66.20
2018-03-28T23:42:23.788Z,66.30
2018-03-28T23:44:55.952Z,66.50
2018-03-28T23:47:26.612Z,66.70
2018-03-28T23:49:57.484Z,66.60
2018-03-28T23:52:28.490Z,66.70
2018-03-28T23:54:59.248Z,66.60
2018-03-28T23:57:29.798Z,66.40
